LogoCoinalyze
    Ad-Free Version 主页 市场 资金费率
    期货数据
    • 汇总数据 (币种)
    • 单币图表
    • 全局图表
    提醒
    TA
    Bitcoin Ethereum BNB Ripple Tron Dogecoin ZCash Monero UNUS SED LEO Chainlink Cardano Stellar Lumens Bitcoin Cash Litecoin Hedera Cronos Polkadot Ethereum Classic Algorand Quant Cosmos VeChain Dash Bitcoin SV BitTorrent Terra Decred Tezos Iota The Graph THETA MultiversX Decentraland NEO Chiliz Golem Basic Attention Token Horizen Qtum 0x Beam DigiByte RIF Token FTX Token FUNToken Holo aelf Zilliqa Ontology Nano Enjin Coin Ravencoin Verge Mask Network Siacoin WINk Status Waves IoTeX Power Ledger iExec RLC Steem Kyber Network Crystal Lisk Ardor Ark WOO Network IOST WAX Icon Storj Wanchain Loopring Bitcoin Diamond Augur AdEx Bitcoin Gold OmiseGO NEM MonaCoin BitShares Ren V Systems Komodo Nuls Mithril SOLVE Maker EOS Aion Nebulas HedgeTrade Bread Fetch.ai TomoChain Polygon Fantom Waltonchain GXChain Bytom Metaverse ETP MaidSafeCoin QASH
    排序方式:
    更多
    • API
    • K线形态
    • 捐赠
    • 联系我们
    • 网站地图
    • 隐私政策
    • 免责声明
    • Theme:
    简体中文
    • English
    • Français
    • Русский
    • Deutsch
    • Türkçe
    • Nederlands
    • Português (BR)
    • Español
    • 한국어
    • 日本語
     
    登录 / 注册
    Markets/ Pepe/ PEPE 至 USD/ PEPEUSD Kraken
    交易
    WL
    聊天
    统计
    新闻
    ⦷
    AAA
    0.000003443 40500000.00000000 01:16:15
    0.000003445 10000000.00000000 01:14:21
    0.000003444 10000000.00000000 01:14:19
    0.000003441 4469194.57000000 01:13:58
    0.000003441 26678292.00000000 01:13:30
    0.000003436 16340316.50000000 01:12:48
    0.000003433 40500000.00000000 01:12:10
    0.000003430 153911859.82663000 01:11:46
    0.000003430 40500000.00000000 01:11:46
    0.000003430 174888467.80634999 01:11:46
    0.000003431 218589149.13701999 01:11:46
    0.000003423 59762463.00000000 01:10:53
    0.000003423 40500000.00000000 01:10:53
    0.000003424 40500000.00000000 01:10:53
    0.000003425 40500000.00000000 01:10:52
    0.000003426 633640553.00000000 01:10:52
    0.000003427 150546992.09935999 01:10:52
    0.000003427 218806716.50360000 01:10:52
    0.000003427 133570869.04899999 01:10:52
    0.000003427 67450073.93085000 01:10:52
    0.000003429 67121889.23379999 01:10:33
    0.000003429 45302521.86293000 01:10:33
    0.000003430 66712117.89241000 01:10:21
    0.000003430 45612456.59591000 01:10:21
    0.000003430 2914314.86880000 01:10:21
    0.000003402 60176470.00000000 01:04:50
    0.000003402 40500000.00000000 01:04:50
    0.000003403 40500000.00000000 01:04:50
    0.000003406 373418822.00821000 01:03:58
    0.000003405 133507448.94179000 01:03:58
    0.000003405 633640552.99000001 01:03:58
    0.000003405 40500000.00000000 01:03:58
    0.000003404 45300581.82020000 01:03:57
    0.000003404 153356592.41652000 01:03:57
    0.000003403 60059449.07433000 01:03:57
    0.000003403 133838011.11110000 01:03:57
    0.000003403 40500000.00000000 01:03:57
    0.000003404 7762581.73440000 01:02:53
    0.000003404 40500000.00000000 01:02:53
    0.000003402 9466563.09060000 01:02:47
    0.000003394 40500000.00000000 01:01:32
    0.000003397 138140905.25358000 01:01:26
    0.000003397 766782962.08260000 01:01:26
    0.000003397 487722163.23641998 01:01:26
    0.000003397 44704206.42966000 01:01:26
    0.000003397 40500000.00000000 01:01:26
    0.000003398 40500000.00000000 01:01:26
    0.000003399 40500000.00000000 01:01:26
    0.000003400 133996680.95237000 01:01:26
    0.000003400 40500000.00000000 01:01:26
    0.000003405 2084430.69000000 01:01:06
    0.000003407 55030547.00000000 01:00:50
    0.000003410 11544589.13580000 01:00:39
    0.000003409 396489.43000000 01:00:38
    0.000003408 1538531.00000000 00:59:34
    0.000003410 2854000.00000000 00:58:51
    0.000003410 219902574.25529999 00:58:45
    0.000003410 57737661.15508000 00:58:45
    0.000003410 7638429.06000000 00:58:45
    0.000003410 129724879.35483000 00:58:45
    0.000003410 40500000.00000000 00:58:45
    0.000003408 5708000.00000000 00:57:55
    0.000003408 11415900.00000000 00:57:55
    0.000003408 130429331.50864001 00:53:46
    0.000003408 66296328.83802000 00:53:46
    0.000003408 45259787.28499000 00:53:46
    0.000003409 1403928.00000000 00:50:21
    0.000003415 817657.39000000 00:47:32
    0.000003414 303787.00000000 00:47:20
    0.000003407 510890.00000000 00:45:42
    0.000003408 429275.44000000 00:44:54
    0.000003408 2362809.00000000 00:44:27
    0.000003409 22831800.00000000 00:43:50
    0.000003407 585720.00000000 00:42:26
    0.000003412 5718698.71000000 00:40:28
    0.000003411 2356460.88999000 00:39:15
    0.000003400 9152432.96921000 00:37:37
    0.000003400 40500000.00000000 00:37:37
    0.000003401 226804390.84884000 00:37:29
    0.000003401 161586564.61577001 00:37:29
    0.000003401 158998521.31375000 00:37:29
    0.000003401 40500000.00000000 00:37:29
    0.000003402 48020100.00000000 00:36:10
    0.000003401 1089144.00000000 00:35:06
    0.000003402 1538418.57000000 00:33:42
    0.000003409 40500000.00000000 00:31:08
    0.000003408 45747433.04224000 00:31:08
    0.000003407 9048582.24840000 00:31:08
    0.000003407 40500000.00000000 00:31:08
    0.000003406 40500000.00000000 00:31:07
    0.000003406 1292866.00000000 00:31:03
    0.000003414 864500.00000000 00:24:41
    0.000003414 40500000.00000000 00:23:22
    0.000003412 9358128.07020000 00:21:53
    0.000003409 370337.00000000 00:21:38
    0.000003409 45003490.76407000 00:21:20
    0.000003409 69225107.16396999 00:21:20
    0.000003409 152584668.38659000 00:20:28
    0.000003409 40500000.00000000 00:20:28
    0.000003410 40500000.00000000 00:20:28
    注销
    AAA
    帮助
    🙂 🤣 😎 🤗 😛 😉 😜 🤑 🤔 😑 😴 😕 🙃 😲 😇 🙁 😢 😬 😟 😠 🕺 🏃 💪 ✌ 👌 👍 👎 👏 👋 🤝 🍺 🍻 🐋 🐟 🦈 🗽 🚄 ✈ 🛑 🚀 🏦 🌚 ⭐ 🌞 ⚡ 🏆 💰 💲 🔨 ❓ ❗ 💯 🔶 🏁
    ☺
    登录 或 注册 并聊天
    24 小时
    变动
    -0.69%
    成交量
    272,317,226,620
    最高
    0.000003499
    最低
    0.000003365
    7 天
    变动
    -10.57%
    成交量
    3,315,483,607,576
    最高
    0.000004012
    最低
    0.000003363
    30 天
    变动
    +18.64%
    成交量
    14,651,112,127,272
    最高
    0.000004550
    最低
    0.000002530
    DOGE, SHIB, PEPE, or Something Else: Which Meme Coin Can Make History in September? (3 AIs Weigh In)
    "DOGE remains the most likely to record the largest move in dollar terms and lead the entire sector," ChatGPT stated.
    cryptopotato.com
    Sept 3, 2026 00:41
    Pepe price rallies 25% as whale demand and futures interest surge
    Key takeaways Pepe has gained 25% this week, including a combined 22% advance over the previous two days. Seven whale transactions worth more than $1 million each occurred Thursday, the highest...
    coinjournal.net
    Aug 21, 2026 08:41
    PEPE Supply on Exchanges Just Took a Massive Hit – What’s Next?
    A drop in PEPE exchange balances has added to bullish expectations despite muted trader interest.
    cryptopotato.com
    Aug 6, 2026 20:02
    PEPE Exchange Outflows Hit Nearly 2-Year High as Whales Accumulate
    Pepe (PEPE) recorded its largest single-day exchange outflow since November 2024, with 4.54 trillion tokens leaving trading platforms, signaling that holders are moving supply away from immediate...
    beincrypto.com
    Aug 6, 2026 04:57
    Meme Coin Based on White House Shooter Conspiracy Rallies 320%
    $HENRY surged 300% after a 2023 Pepe tweet appeared to name the White House shooter, fueling a viral time-travel meme. The post Meme Coin Based on White House Shooter Conspiracy Rallies 320%...
    beincrypto.com
    Apr 27, 2026 16:11
    PEPE surges 4% as market sentiment improves, eyes Key resistance breakout
    Key takeaways Pepe extends gains on Wednesday, stretching its rally from the 50-day EMA. Derivatives data show heightened retail activity as risk-on sentiment returns to the market. Pepe (PEPE) is...
    coinjournal.net
    Apr 22, 2026 11:44
    Why The PEPE Price Could Stage A 55X Rally To Reach New $0.0001 ATH
    The PEPE price has now started to edge back into bullish conversations after the recent inflows into the crypto market. The last time PEPE’s weekly chart printed the kind of structure now...
    newsbtc.com
    Apr 21, 2026 15:30
    Pepe (PEPE) surges 9%, drawing interest from whales
    Key takeaways PEPE is up 9% in the last 24 hours, making it one of the best performers among the top 50 cryptocurrencies by market cap. The rally comes amid renewed interest from whales and retail...
    coinjournal.net
    Apr 16, 2026 07:40
    Murad Says SPX6900 (SPX) Is Primed for a Rally — Is He Right This Time?
    Crypto influencer Murad Mahmudov claims SPX6900 (SPX) is stabilizing at the same market cap level where Dogecoin (DOGE) and Pepe (PEPE) consolidated before their explosive rallies. The...
    beincrypto.com
    Apr 5, 2026 21:36
    The Shiba Inu Of This Cycle: Analyst Shares Why It Is Better To Buy PEPE Now
    In the bull market cycle of 2021-2022, the Shiba Inu meme coin made waves in a way that changed the face of meme coins forever. This came after Dogecoin’s initial 36,000% rally, and Shiba Inu...
    newsbtc.com
    Apr 4, 2026 07:30
    PEPE Explodes by 18% Amid Altcoin Rally, BTC Tapped $74K: Market Watch
    The frog-themed meme coin is today's biggest gainer, followed by TAO, DOT, and BONK.
    cryptopotato.com
    Mar 16, 2026 10:56
    Should PEPE traders brace for volatility as short squeeze potential builds?
    The memecoin market has seen its collective market capitalization drop by 48% over the past year, and 6.9% over the past month, according to CoinMarketCap. According to Glassnode, the memecoin...
    ambcrypto.com
    Mar 7, 2026 18:00
    只需在聊天中输入命令即可。将 nick1 替换为实际的昵称。
    • /ignore nick1 忽略聊天用户
    • /unignore nick1 取消忽略聊天用户
    • /ignorelist 显示已忽略的聊天用户